sensor_id;sensor_type;location;lat;lon;timestamp;temperature;humidity
34726;DHT22;20951;50.818;4.344;2023-02-01T00:00:09;7.80;99.90
34726;DHT22;20951;50.818;4.344;2023-02-01T00:02:35;7.60;99.90
34726;DHT22;20951;50.818;4.344;2023-02-01T00:05:05;7.50;99.90
34726;DHT22;20951;50.818;4.344;2023-02-01T00:07:31;7.40;99.90
34726;DHT22;20951;50.818;4.344;2023-02-01T00:09:57;7.50;99.90
34726;DHT22;20951;50.818;4.344;2023-02-01T00:12:23;7.30;99.90
34726;DHT22;20951;50.818;4.344;2023-02-01T00:14:48;7.30;99.90
34726;DHT22;20951;50.818;4.344;2023-02-01T00:17:14;7.40;99.90
34726;DHT22;20951;50.818;4.344;2023-02-01T00:19:40;7.40;99.90
34726;DHT22;20951;50.818;4.344;2023-02-01T00:22:06;7.40;99.90
34726;DHT22;20951;50.818;4.344;2023-02-01T00:24:31;7.30;99.90
34726;DHT22;20951;50.818;4.344;2023-02-01T00:26:57;7.40;99.90
34726;DHT22;20951;50.818;4.344;2023-02-01T00:29:23;7.50;99.90
34726;DHT22;20951;50.818;4.344;2023-02-01T00:31:51;7.40;99.90
34726;DHT22;20951;50.818;4.344;2023-02-01T00:34:18;7.40;99.90
34726;DHT22;20951;50.818;4.344;2023-02-01T00:36:45;7.40;99.90
34726;DHT22;20951;50.818;4.344;2023-02-01T00:39:13;7.50;99.90
34726;DHT22;20951;50.818;4.344;2023-02-01T00:41:40;7.40;99.90
34726;DHT22;20951;50.818;4.344;2023-02-01T00:44:06;7.40;99.90
34726;DHT22;20951;50.818;4.344;2023-02-01T00:46:32;7.30;99.90
34726;DHT22;20951;50.818;4.344;2023-02-01T00:48:58;7.40;99.90
34726;DHT22;20951;50.818;4.344;2023-02-01T00:51:27;7.30;99.90
34726;DHT22;20951;50.818;4.344;2023-02-01T00:53:53;7.30;99.90
34726;DHT22;20951;50.818;4.344;2023-02-01T00:56:19;7.30;99.90
34726;DHT22;20951;50.818;4.344;2023-02-01T00:58:45;7.30;99.90
34726;DHT22;20951;50.818;4.344;2023-02-01T01:01:20;7.30;99.90
34726;DHT22;20951;50.818;4.344;2023-02-01T01:03:55;7.30;99.90
34726;DHT22;20951;50.818;4.344;2023-02-01T01:06:29;7.30;99.90
34726;DHT22;20951;50.818;4.344;2023-02-01T01:08:57;7.30;99.90
34726;DHT22;20951;50.818;4.344;2023-02-01T01:11:29;7.30;99.90
34726;DHT22;20951;50.818;4.344;2023-02-01T01:13:56;7.30;99.90
34726;DHT22;20951;50.818;4.344;2023-02-01T01:16:24;7.30;99.90
34726;DHT22;20951;50.818;4.344;2023-02-01T01:18:50;7.40;99.90
34726;DHT22;20951;50.818;4.344;2023-02-01T01:21:17;7.30;99.90
34726;DHT22;20951;50.818;4.344;2023-02-01T01:23:44;7.30;99.90
34726;DHT22;20951;50.818;4.344;2023-02-01T01:26:14;7.40;99.90
34726;DHT22;20951;50.818;4.344;2023-02-01T01:28:40;7.50;99.90
34726;DHT22;20951;50.818;4.344;2023-02-01T01:31:10;7.50;99.90
34726;DHT22;20951;50.818;4.344;2023-02-01T01:33:36;7.60;99.90
34726;DHT22;20951;50.818;4.344;2023-02-01T01:36:05;7.60;99.90
34726;DHT22;20951;50.818;4.344;2023-02-01T01:38:31;7.60;99.90
34726;DHT22;20951;50.818;4.344;2023-02-01T01:40:57;7.60;99.90
34726;DHT22;20951;50.818;4.344;2023-02-01T01:43:23;7.50;99.90
34726;DHT22;20951;50.818;4.344;2023-02-01T01:45:49;7.50;99.90
34726;DHT22;20951;50.818;4.344;2023-02-01T01:48:27;7.40;99.90
34726;DHT22;20951;50.818;4.344;2023-02-01T01:51:06;7.50;99.90
34726;DHT22;20951;50.818;4.344;2023-02-01T01:53:45;7.60;99.90
34726;DHT22;20951;50.818;4.344;2023-02-01T01:56:13;7.60;99.90
34726;DHT22;20951;50.818;4.344;2023-02-01T01:58:40;7.50;99.90
34726;DHT22;20951;50.818;4.344;2023-02-01T02:01:07;7.70;99.90
34726;DHT22;20951;50.818;4.344;2023-02-01T02:03:40;7.70;99.90
34726;DHT22;20951;50.818;4.344;2023-02-01T02:06:20;7.60;99.90
34726;DHT22;20951;50.818;4.344;2023-02-01T02:08:49;7.70;99.90
34726;DHT22;20951;50.818;4.344;2023-02-01T02:11:16;7.60;99.90
34726;DHT22;20951;50.818;4.344;2023-02-01T02:13:46;7.70;99.90
34726;DHT22;20951;50.818;4.344;2023-02-01T02:19:42;7.70;99.90
34726;DHT22;20951;50.818;4.344;2023-02-01T02:24:40;7.80;99.90
34726;DHT22;20951;50.818;4.344;2023-02-01T02:35:28;7.80;99.90
34726;DHT22;20951;50.818;4.344;2023-02-01T02:38:31;7.70;99.90
34726;DHT22;20951;50.818;4.344;2023-02-01T02:41:08;7.50;99.90
34726;DHT22;20951;50.818;4.344;2023-02-01T02:43:45;7.50;99.90
34726;DHT22;20951;50.818;4.344;2023-02-01T02:46:45;7.50;99.90
34726;DHT22;20951;50.818;4.344;2023-02-01T02:49:40;7.40;99.90
34726;DHT22;20951;50.818;4.344;2023-02-01T02:52:15;7.40;99.90
34726;DHT22;20951;50.818;4.344;2023-02-01T02:55:03;7.40;99.90
34726;DHT22;20951;50.818;4.344;2023-02-01T02:57:37;7.50;99.90
34726;DHT22;20951;50.818;4.344;2023-02-01T03:00:27;7.60;99.90
34726;DHT22;20951;50.818;4.344;2023-02-01T03:03:13;7.60;99.90
34726;DHT22;20951;50.818;4.344;2023-02-01T03:05:57;7.50;99.90
34726;DHT22;20951;50.818;4.344;2023-02-01T03:08:30;7.40;99.90
34726;DHT22;20951;50.818;4.344;2023-02-01T03:11:09;7.40;99.90
34726;DHT22;20951;50.818;4.344;2023-02-01T03:13:44;7.40;99.90
34726;DHT22;20951;50.818;4.344;2023-02-01T03:18:50;7.20;99.90
34726;DHT22;20951;50.818;4.344;2023-02-01T03:21:28;7.20;99.90
34726;DHT22;20951;50.818;4.344;2023-02-01T03:24:00;7.20;99.90
34726;DHT22;20951;50.818;4.344;2023-02-01T03:26:30;7.10;99.90
34726;DHT22;20951;50.818;4.344;2023-02-01T03:29:02;7.00;99.90
34726;DHT22;20951;50.818;4.344;2023-02-01T03:31:31;7.00;99.90
34726;DHT22;20951;50.818;4.344;2023-02-01T03:33:57;6.90;99.90
34726;DHT22;20951;50.818;4.344;2023-02-01T03:36:31;6.90;99.90
34726;DHT22;20951;50.818;4.344;2023-02-01T03:42:11;7.10;99.90
34726;DHT22;20951;50.818;4.344;2023-02-01T03:44:44;7.00;99.90
34726;DHT22;20951;50.818;4.344;2023-02-01T03:47:26;7.00;99.90
34726;DHT22;20951;50.818;4.344;2023-02-01T03:49:57;6.90;99.90
34726;DHT22;20951;50.818;4.344;2023-02-01T03:52:32;6.70;99.90
34726;DHT22;20951;50.818;4.344;2023-02-01T03:55:01;6.70;99.90
34726;DHT22;20951;50.818;4.344;2023-02-01T03:57:31;6.80;99.90
34726;DHT22;20951;50.818;4.344;2023-02-01T04:00:14;6.80;99.90
34726;DHT22;20951;50.818;4.344;2023-02-01T04:02:40;6.80;99.90
34726;DHT22;20951;50.818;4.344;2023-02-01T04:05:06;6.80;99.90
34726;DHT22;20951;50.818;4.344;2023-02-01T04:07:32;6.90;99.90
34726;DHT22;20951;50.818;4.344;2023-02-01T04:09:58;6.70;99.90
34726;DHT22;20951;50.818;4.344;2023-02-01T04:12:24;6.60;99.90
34726;DHT22;20951;50.818;4.344;2023-02-01T04:14:49;6.60;99.90
34726;DHT22;20951;50.818;4.344;2023-02-01T04:17:15;6.60;99.90
34726;DHT22;20951;50.818;4.344;2023-02-01T04:19:41;6.60;99.90
34726;DHT22;20951;50.818;4.344;2023-02-01T04:22:07;6.60;99.90
34726;DHT22;20951;50.818;4.344;2023-02-01T04:24:33;6.60;99.90
34726;DHT22;20951;50.818;4.344;2023-02-01T04:26:59;6.60;99.90
34726;DHT22;20951;50.818;4.344;2023-02-01T04:29:24;6.50;99.90
34726;DHT22;20951;50.818;4.344;2023-02-01T04:31:50;6.40;99.90
34726;DHT22;20951;50.818;4.344;2023-02-01T04:34:16;6.40;99.90
34726;DHT22;20951;50.818;4.344;2023-02-01T04:36:42;6.30;99.90
34726;DHT22;20951;50.818;4.344;2023-02-01T04:39:09;6.20;99.90
34726;DHT22;20951;50.818;4.344;2023-02-01T04:41:35;6.10;99.90
34726;DHT22;20951;50.818;4.344;2023-02-01T04:44:01;6.30;99.90
34726;DHT22;20951;50.818;4.344;2023-02-01T04:46:27;6.20;99.90
34726;DHT22;20951;50.818;4.344;2023-02-01T04:48:52;6.10;99.90
34726;DHT22;20951;50.818;4.344;2023-02-01T04:51:18;6.00;99.90
34726;DHT22;20951;50.818;4.344;2023-02-01T04:53:45;6.00;99.90
34726;DHT22;20951;50.818;4.344;2023-02-01T04:56:10;6.10;99.90
34726;DHT22;20951;50.818;4.344;2023-02-01T04:58:37;6.10;99.90
34726;DHT22;20951;50.818;4.344;2023-02-01T05:01:04;5.90;99.90
34726;DHT22;20951;50.818;4.344;2023-02-01T05:03:33;5.90;99.90
34726;DHT22;20951;50.818;4.344;2023-02-01T05:05:59;5.80;99.90
34726;DHT22;20951;50.818;4.344;2023-02-01T05:08:25;5.90;99.90
34726;DHT22;20951;50.818;4.344;2023-02-01T05:10:52;5.80;99.90
34726;DHT22;20951;50.818;4.344;2023-02-01T05:13:18;5.90;99.90
34726;DHT22;20951;50.818;4.344;2023-02-01T05:16:03;5.90;99.90
34726;DHT22;20951;50.818;4.344;2023-02-01T05:18:28;6.00;99.90
34726;DHT22;20951;50.818;4.344;2023-02-01T05:20:54;6.00;99.90
34726;DHT22;20951;50.818;4.344;2023-02-01T05:23:20;6.00;99.90
34726;DHT22;20951;50.818;4.344;2023-02-01T05:25:46;5.80;99.90
34726;DHT22;20951;50.818;4.344;2023-02-01T05:28:13;5.80;99.90
34726;DHT22;20951;50.818;4.344;2023-02-01T05:30:39;5.70;99.90
34726;DHT22;20951;50.818;4.344;2023-02-01T05:33:04;5.70;99.90
34726;DHT22;20951;50.818;4.344;2023-02-01T05:35:30;5.80;99.90
34726;DHT22;20951;50.818;4.344;2023-02-01T05:37:56;5.70;99.90
34726;DHT22;20951;50.818;4.344;2023-02-01T05:40:22;5.70;99.90
34726;DHT22;20951;50.818;4.344;2023-02-01T05:42:48;5.70;99.90
34726;DHT22;20951;50.818;4.344;2023-02-01T05:45:13;5.70;99.90
34726;DHT22;20951;50.818;4.344;2023-02-01T05:47:39;5.70;99.90
34726;DHT22;20951;50.818;4.344;2023-02-01T05:50:06;5.60;99.90
34726;DHT22;20951;50.818;4.344;2023-02-01T05:52:33;5.50;99.90
34726;DHT22;20951;50.818;4.344;2023-02-01T05:54:58;5.40;99.90
34726;DHT22;20951;50.818;4.344;2023-02-01T05:57:24;5.60;99.90
34726;DHT22;20951;50.818;4.344;2023-02-01T05:59:50;5.60;99.90
34726;DHT22;20951;50.818;4.344;2023-02-01T06:02:16;5.50;99.90
34726;DHT22;20951;50.818;4.344;2023-02-01T06:04:42;5.60;99.90
34726;DHT22;20951;50.818;4.344;2023-02-01T06:07:09;5.60;99.90
34726;DHT22;20951;50.818;4.344;2023-02-01T06:09:36;5.50;99.90
34726;DHT22;20951;50.818;4.344;2023-02-01T06:12:03;5.40;99.90
34726;DHT22;20951;50.818;4.344;2023-02-01T06:14:29;5.30;99.90
34726;DHT22;20951;50.818;4.344;2023-02-01T06:16:55;5.40;99.90
34726;DHT22;20951;50.818;4.344;2023-02-01T06:19:22;5.30;99.90
34726;DHT22;20951;50.818;4.344;2023-02-01T06:21:48;5.20;99.90
34726;DHT22;20951;50.818;4.344;2023-02-01T06:24:14;5.50;99.90
34726;DHT22;20951;50.818;4.344;2023-02-01T06:26:40;5.40;99.90
34726;DHT22;20951;50.818;4.344;2023-02-01T06:29:07;5.50;99.90
34726;DHT22;20951;50.818;4.344;2023-02-01T06:31:33;5.30;99.90
34726;DHT22;20951;50.818;4.344;2023-02-01T06:33:59;5.20;99.90
34726;DHT22;20951;50.818;4.344;2023-02-01T06:36:25;5.20;99.90
34726;DHT22;20951;50.818;4.344;2023-02-01T06:38:51;5.20;99.90
34726;DHT22;20951;50.818;4.344;2023-02-01T06:41:16;5.30;99.90
34726;DHT22;20951;50.818;4.344;2023-02-01T06:43:42;5.40;99.90
34726;DHT22;20951;50.818;4.344;2023-02-01T06:46:13;5.30;99.90
34726;DHT22;20951;50.818;4.344;2023-02-01T06:48:39;5.40;99.90
34726;DHT22;20951;50.818;4.344;2023-02-01T06:51:05;5.40;99.90
34726;DHT22;20951;50.818;4.344;2023-02-01T06:53:31;5.30;99.90
34726;DHT22;20951;50.818;4.344;2023-02-01T06:56:00;5.20;99.90
34726;DHT22;20951;50.818;4.344;2023-02-01T06:58:33;5.30;99.90
34726;DHT22;20951;50.818;4.344;2023-02-01T07:01:09;5.50;99.90
34726;DHT22;20951;50.818;4.344;2023-02-01T07:03:36;5.40;99.90
34726;DHT22;20951;50.818;4.344;2023-02-01T07:06:02;5.40;99.90
34726;DHT22;20951;50.818;4.344;2023-02-01T07:08:33;5.50;99.90
34726;DHT22;20951;50.818;4.344;2023-02-01T07:11:06;5.60;99.90
34726;DHT22;20951;50.818;4.344;2023-02-01T07:13:32;5.60;99.90
34726;DHT22;20951;50.818;4.344;2023-02-01T07:16:03;5.60;99.90
34726;DHT22;20951;50.818;4.344;2023-02-01T07:18:30;5.50;99.90
34726;DHT22;20951;50.818;4.344;2023-02-01T07:20:57;5.50;99.90
34726;DHT22;20951;50.818;4.344;2023-02-01T07:23:23;5.50;99.90
34726;DHT22;20951;50.818;4.344;2023-02-01T07:25:53;5.50;99.90
34726;DHT22;20951;50.818;4.344;2023-02-01T07:28:19;5.40;99.90
34726;DHT22;20951;50.818;4.344;2023-02-01T07:30:45;5.30;99.90
34726;DHT22;20951;50.818;4.344;2023-02-01T07:33:20;5.40;99.90
34726;DHT22;20951;50.818;4.344;2023-02-01T07:35:47;5.50;99.90
34726;DHT22;20951;50.818;4.344;2023-02-01T07:38:12;5.50;99.90
34726;DHT22;20951;50.818;4.344;2023-02-01T07:40:39;5.50;99.90
34726;DHT22;20951;50.818;4.344;2023-02-01T07:43:04;5.50;99.90
34726;DHT22;20951;50.818;4.344;2023-02-01T07:45:31;5.50;99.90
34726;DHT22;20951;50.818;4.344;2023-02-01T07:47:57;5.60;99.90
34726;DHT22;20951;50.818;4.344;2023-02-01T07:50:23;5.60;99.90
34726;DHT22;20951;50.818;4.344;2023-02-01T07:52:49;5.60;99.90
34726;DHT22;20951;50.818;4.344;2023-02-01T07:55:15;5.50;99.90
34726;DHT22;20951;50.818;4.344;2023-02-01T07:57:41;5.50;99.90
34726;DHT22;20951;50.818;4.344;2023-02-01T08:00:08;5.40;99.90
34726;DHT22;20951;50.818;4.344;2023-02-01T08:02:53;5.50;99.90
34726;DHT22;20951;50.818;4.344;2023-02-01T08:05:18;5.50;99.90
34726;DHT22;20951;50.818;4.344;2023-02-01T08:07:48;5.60;99.90
34726;DHT22;20951;50.818;4.344;2023-02-01T08:10:15;5.60;99.90
34726;DHT22;20951;50.818;4.344;2023-02-01T08:12:41;5.60;99.90
34726;DHT22;20951;50.818;4.344;2023-02-01T08:15:07;5.70;99.90
34726;DHT22;20951;50.818;4.344;2023-02-01T08:17:33;5.60;99.90
34726;DHT22;20951;50.818;4.344;2023-02-01T08:19:59;5.60;99.90
34726;DHT22;20951;50.818;4.344;2023-02-01T08:22:25;5.60;99.90
34726;DHT22;20951;50.818;4.344;2023-02-01T08:24:50;5.70;99.90
34726;DHT22;20951;50.818;4.344;2023-02-01T08:27:17;5.70;99.90
34726;DHT22;20951;50.818;4.344;2023-02-01T08:29:45;5.80;99.90
34726;DHT22;20951;50.818;4.344;2023-02-01T08:32:13;5.90;99.90
34726;DHT22;20951;50.818;4.344;2023-02-01T08:34:40;5.80;99.90
34726;DHT22;20951;50.818;4.344;2023-02-01T08:37:08;5.80;99.90
34726;DHT22;20951;50.818;4.344;2023-02-01T08:39:36;6.00;99.90
34726;DHT22;20951;50.818;4.344;2023-02-01T08:42:04;5.90;99.90
34726;DHT22;20951;50.818;4.344;2023-02-01T08:44:49;6.00;99.90
34726;DHT22;20951;50.818;4.344;2023-02-01T08:47:18;6.00;99.90
34726;DHT22;20951;50.818;4.344;2023-02-01T08:49:46;6.10;99.90
34726;DHT22;20951;50.818;4.344;2023-02-01T08:52:14;6.20;99.90
34726;DHT22;20951;50.818;4.344;2023-02-01T08:54:42;6.10;99.90
34726;DHT22;20951;50.818;4.344;2023-02-01T08:57:10;6.10;99.90
34726;DHT22;20951;50.818;4.344;2023-02-01T08:59:38;6.20;99.90
34726;DHT22;20951;50.818;4.344;2023-02-01T09:02:06;6.30;99.90
34726;DHT22;20951;50.818;4.344;2023-02-01T09:04:33;6.70;99.90
34726;DHT22;20951;50.818;4.344;2023-02-01T09:07:01;6.90;99.90
34726;DHT22;20951;50.818;4.344;2023-02-01T09:09:29;6.90;99.90
34726;DHT22;20951;50.818;4.344;2023-02-01T09:11:57;6.90;99.90
34726;DHT22;20951;50.818;4.344;2023-02-01T09:14:25;7.20;99.90
34726;DHT22;20951;50.818;4.344;2023-02-01T09:16:53;7.20;99.90
34726;DHT22;20951;50.818;4.344;2023-02-01T09:19:21;7.10;99.90
34726;DHT22;20951;50.818;4.344;2023-02-01T09:21:49;7.00;99.90
34726;DHT22;20951;50.818;4.344;2023-02-01T09:24:17;6.90;99.90
34726;DHT22;20951;50.818;4.344;2023-02-01T09:26:44;6.80;99.90
34726;DHT22;20951;50.818;4.344;2023-02-01T09:29:11;7.10;99.90
34726;DHT22;20951;50.818;4.344;2023-02-01T09:31:39;7.00;99.90
34726;DHT22;20951;50.818;4.344;2023-02-01T09:34:06;6.90;99.90
34726;DHT22;20951;50.818;4.344;2023-02-01T09:36:33;6.90;99.90
34726;DHT22;20951;50.818;4.344;2023-02-01T09:39:01;6.90;99.90
34726;DHT22;20951;50.818;4.344;2023-02-01T09:41:34;7.00;99.90
34726;DHT22;20951;50.818;4.344;2023-02-01T09:46:58;7.00;99.90
34726;DHT22;20951;50.818;4.344;2023-02-01T09:49:39;7.00;99.90
34726;DHT22;20951;50.818;4.344;2023-02-01T09:52:13;7.00;99.90
34726;DHT22;20951;50.818;4.344;2023-02-01T09:54:46;7.10;99.90
34726;DHT22;20951;50.818;4.344;2023-02-01T09:57:22;7.20;99.90
34726;DHT22;20951;50.818;4.344;2023-02-01T09:59:54;7.30;99.90
34726;DHT22;20951;50.818;4.344;2023-02-01T10:02:25;7.20;99.90
34726;DHT22;20951;50.818;4.344;2023-02-01T10:04:56;7.20;99.90
34726;DHT22;20951;50.818;4.344;2023-02-01T10:07:36;7.30;99.90
34726;DHT22;20951;50.818;4.344;2023-02-01T10:13:32;7.50;99.90
34726;DHT22;20951;50.818;4.344;2023-02-01T10:16:11;7.50;99.90
34726;DHT22;20951;50.818;4.344;2023-02-01T10:24:37;7.60;99.90
34726;DHT22;20951;50.818;4.344;2023-02-01T10:27:21;7.70;99.90
34726;DHT22;20951;50.818;4.344;2023-02-01T10:30:16;7.80;99.90
34726;DHT22;20951;50.818;4.344;2023-02-01T10:32:40;7.80;99.90
34726;DHT22;20951;50.818;4.344;2023-02-01T10:35:18;7.80;99.90
34726;DHT22;20951;50.818;4.344;2023-02-01T10:37:46;7.90;99.90
34726;DHT22;20951;50.818;4.344;2023-02-01T10:40:22;8.00;99.90
34726;DHT22;20951;50.818;4.344;2023-02-01T10:42:54;8.10;99.90
34726;DHT22;20951;50.818;4.344;2023-02-01T10:45:25;8.00;99.90
34726;DHT22;20951;50.818;4.344;2023-02-01T10:47:53;8.00;99.90
34726;DHT22;20951;50.818;4.344;2023-02-01T10:50:46;8.00;99.90
34726;DHT22;20951;50.818;4.344;2023-02-01T10:55:53;8.20;99.90
34726;DHT22;20951;50.818;4.344;2023-02-01T10:58:28;8.30;99.90
34726;DHT22;20951;50.818;4.344;2023-02-01T11:01:06;8.50;99.90
34726;DHT22;20951;50.818;4.344;2023-02-01T11:11:31;9.00;99.90
34726;DHT22;20951;50.818;4.344;2023-02-01T11:14:10;9.10;99.90
34726;DHT22;20951;50.818;4.344;2023-02-01T11:16:39;9.10;99.90
34726;DHT22;20951;50.818;4.344;2023-02-01T11:19:06;9.30;99.90
34726;DHT22;20951;50.818;4.344;2023-02-01T11:21:33;9.30;99.90
34726;DHT22;20951;50.818;4.344;2023-02-01T11:24:04;9.20;99.90
34726;DHT22;20951;50.818;4.344;2023-02-01T11:26:31;9.20;99.90
34726;DHT22;20951;50.818;4.344;2023-02-01T11:29:10;9.40;99.90
34726;DHT22;20951;50.818;4.344;2023-02-01T11:31:39;9.60;99.90
34726;DHT22;20951;50.818;4.344;2023-02-01T11:34:16;9.80;99.90
34726;DHT22;20951;50.818;4.344;2023-02-01T11:36:46;9.80;99.90
34726;DHT22;20951;50.818;4.344;2023-02-01T11:42:04;9.70;99.90
34726;DHT22;20951;50.818;4.344;2023-02-01T11:44:39;9.80;99.90
34726;DHT22;20951;50.818;4.344;2023-02-01T11:47:27;9.60;99.90
34726;DHT22;20951;50.818;4.344;2023-02-01T11:49:59;9.60;99.90
34726;DHT22;20951;50.818;4.344;2023-02-01T12:01:27;9.50;99.90
34726;DHT22;20951;50.818;4.344;2023-02-01T12:06:50;9.50;99.90
34726;DHT22;20951;50.818;4.344;2023-02-01T12:15:19;9.90;99.90
34726;DHT22;20951;50.818;4.344;2023-02-01T12:21:02;9.80;99.90
34726;DHT22;20951;50.818;4.344;2023-02-01T12:29:23;9.80;99.90
34726;DHT22;20951;50.818;4.344;2023-02-01T12:32:25;9.70;99.90
34726;DHT22;20951;50.818;4.344;2023-02-01T12:45:54;10.00;99.90
34726;DHT22;20951;50.818;4.344;2023-02-01T12:48:34;10.20;99.90
34726;DHT22;20951;50.818;4.344;2023-02-01T12:51:37;10.10;99.90
34726;DHT22;20951;50.818;4.344;2023-02-01T12:54:15;10.20;99.90
34726;DHT22;20951;50.818;4.344;2023-02-01T12:56:49;10.20;99.90
34726;DHT22;20951;50.818;4.344;2023-02-01T12:59:38;10.20;99.90
34726;DHT22;20951;50.818;4.344;2023-02-01T13:02:33;10.30;99.90
34726;DHT22;20951;50.818;4.344;2023-02-01T13:05:14;10.40;99.90
34726;DHT22;20951;50.818;4.344;2023-02-01T13:07:44;10.40;99.90
34726;DHT22;20951;50.818;4.344;2023-02-01T13:10:22;10.30;99.90
34726;DHT22;20951;50.818;4.344;2023-02-01T13:12:53;10.30;99.90
34726;DHT22;20951;50.818;4.344;2023-02-01T13:15:40;10.30;99.90
34726;DHT22;20951;50.818;4.344;2023-02-01T13:18:18;10.50;99.90
34726;DHT22;20951;50.818;4.344;2023-02-01T13:21:10;10.70;99.90
34726;DHT22;20951;50.818;4.344;2023-02-01T13:23:40;10.80;99.90
34726;DHT22;20951;50.818;4.344;2023-02-01T13:26:07;10.70;99.90
34726;DHT22;20951;50.818;4.344;2023-02-01T13:37:33;10.70;99.90
34726;DHT22;20951;50.818;4.344;2023-02-01T13:40:29;10.70;99.90
34726;DHT22;20951;50.818;4.344;2023-02-01T13:45:45;10.80;99.90
34726;DHT22;20951;50.818;4.344;2023-02-01T13:48:28;10.70;99.90
34726;DHT22;20951;50.818;4.344;2023-02-01T13:50:57;10.60;99.90
34726;DHT22;20951;50.818;4.344;2023-02-01T13:53:35;10.60;99.90
34726;DHT22;20951;50.818;4.344;2023-02-01T13:58:37;10.40;99.90
34726;DHT22;20951;50.818;4.344;2023-02-01T14:03:52;10.30;99.90
34726;DHT22;20951;50.818;4.344;2023-02-01T14:11:50;10.50;99.90
34726;DHT22;20951;50.818;4.344;2023-02-01T14:19:31;10.70;99.90
34726;DHT22;20951;50.818;4.344;2023-02-01T14:22:46;10.70;99.90
34726;DHT22;20951;50.818;4.344;2023-02-01T14:24:56;10.70;99.90
34726;DHT22;20951;50.818;4.344;2023-02-01T14:27:35;10.60;99.90
34726;DHT22;20951;50.818;4.344;2023-02-01T14:30:06;10.40;99.90
34726;DHT22;20951;50.818;4.344;2023-02-01T14:32:36;10.30;99.90
34726;DHT22;20951;50.818;4.344;2023-02-01T14:35:27;10.20;99.90
34726;DHT22;20951;50.818;4.344;2023-02-01T14:38:01;10.30;99.90
34726;DHT22;20951;50.818;4.344;2023-02-01T14:40:33;10.40;99.90
34726;DHT22;20951;50.818;4.344;2023-02-01T14:43:01;10.20;99.90
34726;DHT22;20951;50.818;4.344;2023-02-01T14:50:48;10.20;99.90
34726;DHT22;20951;50.818;4.344;2023-02-01T14:53:27;10.20;99.90
34726;DHT22;20951;50.818;4.344;2023-02-01T15:01:30;10.10;99.90
34726;DHT22;20951;50.818;4.344;2023-02-01T15:04:10;10.10;99.90
34726;DHT22;20951;50.818;4.344;2023-02-01T15:06:39;10.00;99.90
34726;DHT22;20951;50.818;4.344;2023-02-01T15:14:29;9.80;99.90
34726;DHT22;20951;50.818;4.344;2023-02-01T15:16:56;9.70;99.90
34726;DHT22;20951;50.818;4.344;2023-02-01T15:19:26;9.80;99.90
34726;DHT22;20951;50.818;4.344;2023-02-01T15:21:57;9.70;99.90
34726;DHT22;20951;50.818;4.344;2023-02-01T15:24:30;9.80;99.90
34726;DHT22;20951;50.818;4.344;2023-02-01T15:27:03;9.80;99.90
34726;DHT22;20951;50.818;4.344;2023-02-01T15:29:30;9.70;99.90
34726;DHT22;20951;50.818;4.344;2023-02-01T15:31:59;9.70;99.90
34726;DHT22;20951;50.818;4.344;2023-02-01T15:34:48;9.60;99.90
34726;DHT22;20951;50.818;4.344;2023-02-01T15:37:16;9.70;99.90
34726;DHT22;20951;50.818;4.344;2023-02-01T15:42:49;9.60;99.90
34726;DHT22;20951;50.818;4.344;2023-02-01T15:45:20;9.50;99.90
34726;DHT22;20951;50.818;4.344;2023-02-01T15:47:48;9.60;99.90
34726;DHT22;20951;50.818;4.344;2023-02-01T15:50:16;9.60;99.90
34726;DHT22;20951;50.818;4.344;2023-02-01T15:52:47;9.60;99.90
34726;DHT22;20951;50.818;4.344;2023-02-01T15:55:20;9.50;99.90
34726;DHT22;20951;50.818;4.344;2023-02-01T15:57:48;9.60;99.90
34726;DHT22;20951;50.818;4.344;2023-02-01T16:00:27;9.40;99.90
34726;DHT22;20951;50.818;4.344;2023-02-01T16:03:00;9.50;99.90
34726;DHT22;20951;50.818;4.344;2023-02-01T16:05:37;9.50;99.90
34726;DHT22;20951;50.818;4.344;2023-02-01T16:08:11;9.50;99.90
34726;DHT22;20951;50.818;4.344;2023-02-01T16:10:44;9.60;99.90
34726;DHT22;20951;50.818;4.344;2023-02-01T16:13:11;9.70;99.90
34726;DHT22;20951;50.818;4.344;2023-02-01T16:15:38;9.60;99.90
34726;DHT22;20951;50.818;4.344;2023-02-01T16:18:06;9.60;99.90
34726;DHT22;20951;50.818;4.344;2023-02-01T16:20:37;9.50;99.90
34726;DHT22;20951;50.818;4.344;2023-02-01T16:23:05;9.40;99.90
34726;DHT22;20951;50.818;4.344;2023-02-01T16:25:31;9.50;99.90
34726;DHT22;20951;50.818;4.344;2023-02-01T16:27:58;9.50;99.90
34726;DHT22;20951;50.818;4.344;2023-02-01T16:30:24;9.50;99.90
34726;DHT22;20951;50.818;4.344;2023-02-01T16:32:58;9.30;99.90
34726;DHT22;20951;50.818;4.344;2023-02-01T16:35:35;9.20;99.90
34726;DHT22;20951;50.818;4.344;2023-02-01T16:38:13;9.30;99.90
34726;DHT22;20951;50.818;4.344;2023-02-01T16:40:40;9.30;99.90
34726;DHT22;20951;50.818;4.344;2023-02-01T16:43:19;9.40;99.90
34726;DHT22;20951;50.818;4.344;2023-02-01T16:45:47;9.30;99.90
34726;DHT22;20951;50.818;4.344;2023-02-01T16:48:25;9.20;99.90
34726;DHT22;20951;50.818;4.344;2023-02-01T16:51:03;9.30;99.90
34726;DHT22;20951;50.818;4.344;2023-02-01T16:53:32;9.20;99.90
34726;DHT22;20951;50.818;4.344;2023-02-01T16:55:59;9.20;99.90
34726;DHT22;20951;50.818;4.344;2023-02-01T16:58:28;9.30;99.90
34726;DHT22;20951;50.818;4.344;2023-02-01T17:00:55;9.30;99.90
34726;DHT22;20951;50.818;4.344;2023-02-01T17:03:22;9.30;99.90
34726;DHT22;20951;50.818;4.344;2023-02-01T17:05:52;9.20;99.90
34726;DHT22;20951;50.818;4.344;2023-02-01T17:08:32;9.30;99.90
34726;DHT22;20951;50.818;4.344;2023-02-01T17:11:00;9.30;99.90
34726;DHT22;20951;50.818;4.344;2023-02-01T17:13:27;9.20;99.90
34726;DHT22;20951;50.818;4.344;2023-02-01T17:16:15;9.20;99.90
34726;DHT22;20951;50.818;4.344;2023-02-01T17:19:02;9.20;99.90
34726;DHT22;20951;50.818;4.344;2023-02-01T17:21:34;9.30;99.90
34726;DHT22;20951;50.818;4.344;2023-02-01T17:24:02;9.30;99.90
34726;DHT22;20951;50.818;4.344;2023-02-01T17:26:30;9.30;99.90
34726;DHT22;20951;50.818;4.344;2023-02-01T17:28:57;9.30;99.90
34726;DHT22;20951;50.818;4.344;2023-02-01T17:31:24;9.20;99.90
34726;DHT22;20951;50.818;4.344;2023-02-01T17:33:51;9.10;99.90
34726;DHT22;20951;50.818;4.344;2023-02-01T17:36:19;9.10;99.90
34726;DHT22;20951;50.818;4.344;2023-02-01T17:38:46;9.30;99.90
34726;DHT22;20951;50.818;4.344;2023-02-01T17:41:14;9.30;99.90
34726;DHT22;20951;50.818;4.344;2023-02-01T17:43:41;9.20;99.90
34726;DHT22;20951;50.818;4.344;2023-02-01T17:46:14;9.10;99.90
34726;DHT22;20951;50.818;4.344;2023-02-01T17:48:42;9.10;99.90
34726;DHT22;20951;50.818;4.344;2023-02-01T17:51:20;9.10;99.90
34726;DHT22;20951;50.818;4.344;2023-02-01T17:53:48;9.20;99.90
34726;DHT22;20951;50.818;4.344;2023-02-01T17:56:18;9.10;99.90
34726;DHT22;20951;50.818;4.344;2023-02-01T17:58:46;9.10;99.90
34726;DHT22;20951;50.818;4.344;2023-02-01T18:01:18;9.10;99.90
34726;DHT22;20951;50.818;4.344;2023-02-01T18:03:45;9.20;99.90
34726;DHT22;20951;50.818;4.344;2023-02-01T18:06:15;9.00;99.90
34726;DHT22;20951;50.818;4.344;2023-02-01T18:08:42;9.10;99.90
34726;DHT22;20951;50.818;4.344;2023-02-01T18:11:15;9.00;99.90
34726;DHT22;20951;50.818;4.344;2023-02-01T18:13:42;9.00;99.90
34726;DHT22;20951;50.818;4.344;2023-02-01T18:16:32;9.00;99.90